International Virtual Aviation Organisation

Russian Federation and Kazakhstan MCD

 
UWGG 300100Z 13003MPS 9999 SCT010 02/M00 Q1037 R18L/290050 NOSIG
QNH:(hPa/inHg/mmHg)1037 / 30.62 / 778
QFE:(hPa/inHg/mmHg)1028 / 30.34 / 771
Temperature2
Dew Point-0
Visibility> 10000
Weather
Cloud CoverSCT (1000);
Transition Height900 m./3300 ft.
Transition LevelFL40
SQUAWK